createdAt,value
2019-03-10T00:00:00.363Z,74.71
2019-03-10T00:02:32.838Z,78.65
2019-03-10T00:05:05.070Z,78.47
2019-03-10T00:07:36.551Z,79.23
2019-03-10T00:10:10.080Z,81.62
2019-03-10T00:12:42.550Z,81.63
2019-03-10T00:15:15.140Z,81.99
2019-03-10T00:17:47.518Z,82.42
2019-03-10T00:20:19.890Z,82.20
2019-03-10T00:22:52.230Z,81.97
2019-03-10T00:25:25.924Z,80.35
2019-03-10T00:27:58.330Z,80.24
2019-03-10T00:30:31.760Z,82.22
2019-03-10T00:33:04.140Z,82.59
2019-03-10T00:35:36.502Z,82.72
2019-03-10T00:38:08.880Z,80.96
2019-03-10T00:41:32.440Z,81.20
2019-03-10T00:45:03.098Z,82.32
2019-03-10T00:48:20.638Z,82.23
2019-03-10T00:51:25.643Z,83.01
2019-03-10T00:53:57.830Z,83.36
2019-03-10T00:56:29.568Z,82.93
2019-03-10T00:59:01.729Z,85.16
2019-03-10T01:01:35.561Z,83.13
2019-03-10T01:04:07.779Z,83.63
2019-03-10T01:06:38.999Z,83.60
2019-03-10T01:09:11.592Z,85.20
2019-03-10T01:11:44.028Z,84.00
2019-03-10T01:14:16.370Z,84.54
2019-03-10T01:16:48.992Z,84.30
2019-03-10T01:19:23.630Z,84.65
2019-03-10T01:21:57.408Z,83.40
2019-03-10T01:24:29.808Z,82.35
2019-03-10T01:27:02.190Z,82.78
2019-03-10T01:29:34.490Z,83.23
2019-03-10T01:32:33.667Z,83.62
2019-03-10T01:35:12.524Z,83.68
2019-03-10T01:37:45.113Z,84.03
2019-03-10T01:40:17.580Z,84.17
2019-03-10T01:42:49.998Z,83.99
2019-03-10T01:45:22.349Z,84.57
2019-03-10T01:47:54.681Z,84.62
2019-03-10T01:50:26.980Z,83.82
2019-03-10T01:52:59.351Z,84.18
2019-03-10T01:55:31.624Z,83.27
2019-03-10T01:58:02.939Z,84.16
2019-03-10T02:00:35.127Z,84.00
2019-03-10T02:03:07.620Z,83.31
2019-03-10T02:05:40.028Z,83.05
2019-03-10T02:08:13.098Z,83.06
2019-03-10T02:10:45.395Z,83.07
2019-03-10T02:13:17.800Z,83.36
2019-03-10T02:15:51.197Z,83.23
2019-03-10T02:18:23.788Z,82.91
2019-03-10T02:20:56.020Z,82.73
2019-03-10T02:23:28.118Z,82.71
2019-03-10T02:26:00.213Z,83.08
2019-03-10T02:28:32.589Z,82.79
2019-03-10T02:31:04.975Z,82.67
2019-03-10T02:33:37.310Z,81.56
2019-03-10T02:36:09.641Z,81.55
2019-03-10T02:38:41.997Z,81.74
2019-03-10T02:41:14.624Z,81.40
2019-03-10T02:43:46.990Z,79.47
2019-03-10T02:46:19.296Z,78.50
2019-03-10T02:48:51.562Z,75.45
2019-03-10T02:51:23.881Z,74.24
2019-03-10T02:53:54.919Z,72.32
2019-03-10T02:56:27.111Z,70.32
2019-03-10T02:58:59.434Z,68.61
2019-03-10T03:01:32.120Z,70.58
2019-03-10T03:04:04.502Z,68.64
2019-03-10T03:06:36.771Z,68.22
2019-03-10T03:09:08.033Z,67.88
2019-03-10T03:11:40.616Z,68.53
2019-03-10T03:14:12.741Z,70.20
2019-03-10T03:16:46.162Z,68.66
2019-03-10T03:19:18.419Z,70.08
2019-03-10T03:21:50.771Z,69.29
2019-03-10T03:24:23.118Z,68.82
2019-03-10T03:26:55.522Z,68.61
2019-03-10T03:29:27.766Z,68.89
2019-03-10T03:32:00.279Z,69.06
2019-03-10T03:34:32.619Z,69.35
2019-03-10T03:37:05.903Z,70.09
2019-03-10T03:39:47.650Z,71.63
2019-03-10T03:42:20.071Z,72.51
2019-03-10T03:44:52.496Z,72.55
2019-03-10T03:47:24.842Z,72.25
2019-03-10T03:49:57.301Z,71.86
2019-03-10T03:52:29.632Z,70.68
2019-03-10T03:55:02.822Z,71.29
2019-03-10T03:57:35.122Z,70.83
2019-03-10T04:00:07.707Z,71.18
2019-03-10T04:02:40.766Z,70.19
2019-03-10T04:05:13.761Z,69.49
2019-03-10T04:07:46.062Z,67.62
2019-03-10T04:10:18.400Z,67.24
2019-03-10T04:12:50.852Z,67.70
2019-03-10T04:15:23.321Z,65.79
2019-03-10T04:17:55.744Z,66.12
2019-03-10T04:20:28.079Z,64.81
2019-03-10T04:23:00.661Z,64.60
2019-03-10T04:25:33.340Z,65.43
2019-03-10T04:28:06.780Z,65.83
2019-03-10T04:30:39.031Z,65.72
2019-03-10T04:33:10.178Z,66.10
2019-03-10T04:35:42.366Z,66.21
2019-03-10T04:38:14.756Z,66.69
2019-03-10T04:40:47.052Z,67.29
2019-03-10T04:43:19.495Z,67.80
2019-03-10T04:45:51.930Z,67.34
2019-03-10T04:48:24.290Z,68.13
2019-03-10T04:50:57.170Z,68.27
2019-03-10T04:53:29.410Z,68.22
2019-03-10T04:56:12.607Z,68.29
2019-03-10T04:58:50.910Z,68.04
2019-03-10T05:01:23.724Z,68.41
2019-03-10T05:03:56.060Z,68.39
2019-03-10T05:06:28.322Z,68.54
2019-03-10T05:08:59.508Z,68.66
2019-03-10T05:11:31.710Z,68.50
2019-03-10T05:14:05.134Z,68.81
2019-03-10T05:16:37.650Z,68.68
2019-03-10T05:19:10.101Z,68.76
2019-03-10T05:21:42.450Z,68.98
2019-03-10T05:24:16.120Z,69.23
2019-03-10T05:26:48.572Z,69.15
2019-03-10T05:29:20.820Z,69.37
2019-03-10T05:31:52.019Z,69.14
2019-03-10T05:34:24.311Z,69.93
2019-03-10T05:36:56.630Z,70.21
2019-03-10T05:39:29.011Z,70.29
2019-03-10T05:42:01.330Z,70.17
2019-03-10T05:44:33.789Z,70.01
2019-03-10T05:47:06.220Z,70.08
2019-03-10T05:49:38.596Z,69.47
2019-03-10T05:52:11.851Z,69.91
2019-03-10T05:54:44.522Z,69.54
2019-03-10T05:57:16.800Z,70.00
2019-03-10T05:59:49.080Z,69.81
2019-03-10T06:02:21.413Z,69.39
2019-03-10T06:04:53.670Z,69.52
2019-03-10T06:07:24.949Z,68.68
2019-03-10T06:09:58.062Z,69.13
2019-03-10T06:12:30.290Z,68.32
2019-03-10T06:15:01.608Z,68.64
2019-03-10T06:17:33.973Z,67.58
2019-03-10T06:20:06.951Z,67.04
2019-03-10T06:22:39.121Z,67.46
2019-03-10T06:25:10.429Z,67.17
2019-03-10T06:27:42.560Z,66.80
2019-03-10T06:30:15.070Z,66.98
2019-03-10T06:32:47.400Z,66.54
2019-03-10T06:35:19.701Z,65.95
2019-03-10T06:37:52.690Z,66.11
2019-03-10T06:40:32.258Z,65.34
2019-03-10T06:43:00.170Z,64.76
2019-03-10T06:45:32.537Z,64.66
2019-03-10T06:48:04.970Z,64.98
2019-03-10T06:50:38.371Z,65.56
2019-03-10T06:53:10.750Z,65.17
2019-03-10T06:55:44.230Z,65.25
2019-03-10T06:58:16.580Z,65.02
2019-03-10T07:00:48.930Z,64.40
2019-03-10T07:03:22.250Z,63.97
2019-03-10T07:05:54.620Z,64.03
2019-03-10T07:08:27.059Z,64.31
2019-03-10T07:10:59.466Z,63.24
2019-03-10T07:13:31.799Z,63.03
2019-03-10T07:16:04.200Z,63.77
2019-03-10T07:18:36.580Z,63.93
2019-03-10T07:21:09.044Z,62.97
2019-03-10T07:23:41.413Z,64.05
2019-03-10T07:26:13.870Z,62.99
2019-03-10T07:28:51.810Z,63.20
2019-03-10T07:31:37.432Z,63.14
2019-03-10T07:34:40.758Z,62.96
2019-03-10T07:37:35.149Z,62.69
2019-03-10T07:40:24.490Z,62.21
2019-03-10T07:43:10.020Z,62.17
2019-03-10T07:46:01.050Z,61.37
2019-03-10T07:48:58.109Z,60.10
2019-03-10T07:51:51.640Z,60.31
2019-03-10T07:54:57.865Z,61.10
2019-03-10T07:57:57.931Z,59.89
2019-03-10T08:00:58.650Z,58.06
2019-03-10T08:03:48.251Z,59.12
2019-03-10T08:06:39.420Z,57.71
2019-03-10T08:09:33.300Z,59.68
2019-03-10T08:12:17.210Z,57.71
2019-03-10T08:15:15.031Z,57.70
2019-03-10T08:18:06.233Z,57.18
2019-03-10T08:20:47.749Z,54.97
2019-03-10T08:23:38.621Z,53.71
2019-03-10T08:26:36.230Z,55.98
2019-03-10T08:29:24.521Z,56.22
2019-03-10T08:32:14.420Z,55.46
2019-03-10T08:34:53.901Z,57.38
2019-03-10T08:38:00.770Z,56.69
2019-03-10T08:40:48.892Z,55.66
2019-03-10T08:43:39.314Z,56.75
2019-03-10T08:46:30.390Z,58.00
2019-03-10T08:49:21.870Z,57.21
2019-03-10T08:52:14.559Z,57.92
2019-03-10T08:55:04.090Z,59.76
2019-03-10T08:58:04.364Z,56.77
2019-03-10T09:01:09.971Z,54.89
2019-03-10T09:03:48.040Z,56.10
2019-03-10T09:06:37.730Z,54.26
2019-03-10T09:09:47.018Z,55.28
2019-03-10T09:12:35.140Z,53.00
2019-03-10T09:15:29.594Z,54.68
2019-03-10T09:18:32.647Z,56.33
2019-03-10T09:21:14.080Z,56.06
2019-03-10T09:24:18.424Z,54.71
2019-03-10T09:27:09.510Z,55.59
2019-03-10T09:30:07.420Z,52.79
2019-03-10T09:33:07.680Z,49.20
2019-03-10T09:36:01.910Z,49.44
2019-03-10T09:38:52.361Z,50.11
2019-03-10T09:41:46.629Z,48.26
2019-03-10T09:44:36.781Z,46.70
2019-03-10T09:47:27.970Z,45.96
2019-03-10T09:50:18.020Z,45.57
2019-03-10T09:53:07.736Z,46.76
2019-03-10T09:56:05.060Z,46.85
2019-03-10T09:58:54.780Z,47.18
2019-03-10T10:01:47.159Z,41.83
2019-03-10T10:04:27.084Z,42.44
2019-03-10T10:07:22.480Z,42.09
2019-03-10T10:10:04.101Z,40.27
2019-03-10T10:13:00.284Z,45.09
2019-03-10T10:15:42.151Z,43.15
2019-03-10T10:18:36.631Z,41.41
2019-03-10T10:21:40.030Z,42.29
2019-03-10T10:24:37.017Z,42.46
2019-03-10T10:27:23.513Z,39.34
2019-03-10T10:30:04.012Z,41.09
2019-03-10T10:33:04.511Z,39.15
2019-03-10T10:36:10.643Z,38.88
2019-03-10T10:39:05.045Z,41.33
2019-03-10T10:42:09.489Z,40.02
2019-03-10T10:45:08.080Z,36.98
2019-03-10T10:48:00.368Z,36.65
2019-03-10T10:50:57.397Z,37.68
2019-03-10T10:53:48.770Z,40.00
2019-03-10T10:56:42.700Z,35.92
2019-03-10T10:59:27.913Z,40.22
2019-03-10T11:02:06.527Z,38.13
2019-03-10T11:05:01.963Z,36.45
2019-03-10T11:07:52.298Z,37.03
2019-03-10T11:10:55.470Z,37.37
2019-03-10T11:13:48.059Z,33.57
2019-03-10T11:16:31.268Z,33.60
2019-03-10T11:19:07.974Z,32.33
2019-03-10T11:22:05.952Z,34.16
2019-03-10T11:24:57.220Z,34.74
2019-03-10T11:27:47.280Z,35.46
2019-03-10T11:30:54.459Z,35.65
2019-03-10T11:33:45.681Z,36.83
2019-03-10T11:36:42.750Z,36.74
2019-03-10T11:39:43.104Z,34.84
2019-03-10T11:42:40.770Z,33.21
2019-03-10T11:45:37.756Z,38.54
2019-03-10T11:48:27.390Z,35.78
2019-03-10T11:51:20.301Z,39.32
2019-03-10T11:54:10.990Z,40.20
2019-03-10T11:57:02.336Z,36.54
2019-03-10T11:59:43.350Z,39.11
2019-03-10T12:02:28.282Z,38.99
2019-03-10T12:05:14.150Z,39.36
2019-03-10T12:08:00.584Z,38.98
2019-03-10T12:10:33.060Z,43.07
2019-03-10T12:13:05.970Z,42.79
2019-03-10T12:15:38.400Z,41.98
2019-03-10T12:18:10.890Z,42.74
2019-03-10T12:20:43.299Z,41.22
2019-03-10T12:23:15.980Z,40.32
2019-03-10T12:25:48.620Z,40.94
2019-03-10T12:28:22.051Z,40.60
2019-03-10T12:30:54.535Z,41.24
2019-03-10T12:33:27.075Z,41.56
2019-03-10T12:35:59.734Z,40.37
2019-03-10T12:38:32.290Z,41.49
2019-03-10T12:41:08.528Z,41.12
2019-03-10T12:43:42.060Z,40.84
2019-03-10T12:46:16.432Z,43.46
2019-03-10T12:48:56.388Z,42.68
2019-03-10T12:51:29.631Z,43.80
2019-03-10T12:54:02.120Z,44.14
2019-03-10T12:56:36.040Z,43.12
2019-03-10T12:59:11.754Z,42.51
2019-03-10T13:01:45.243Z,42.15
2019-03-10T13:04:21.121Z,43.61
2019-03-10T13:06:55.683Z,42.18
2019-03-10T13:09:28.042Z,43.90
2019-03-10T13:12:00.592Z,43.92
2019-03-10T13:14:33.030Z,44.21
2019-03-10T13:17:05.490Z,42.83
2019-03-10T13:19:38.170Z,44.88
2019-03-10T13:22:12.021Z,43.20
2019-03-10T13:24:44.587Z,44.91
2019-03-10T13:27:16.960Z,44.28
2019-03-10T13:29:48.398Z,43.58
2019-03-10T13:32:21.719Z,43.54
2019-03-10T13:34:54.255Z,43.38
2019-03-10T13:37:26.800Z,42.66
2019-03-10T13:40:05.020Z,42.39
2019-03-10T13:42:37.731Z,42.17
2019-03-10T13:45:10.475Z,43.94
2019-03-10T13:47:43.143Z,41.60
2019-03-10T13:50:16.240Z,43.59
2019-03-10T13:52:49.230Z,42.24
2019-03-10T13:55:21.524Z,41.56
2019-03-10T13:57:52.909Z,42.71
2019-03-10T14:00:25.750Z,42.30
2019-03-10T14:02:58.167Z,43.94
2019-03-10T14:05:30.740Z,43.20
2019-03-10T14:08:03.220Z,45.80
2019-03-10T14:10:35.700Z,45.16
2019-03-10T14:13:08.371Z,46.43
2019-03-10T14:15:40.749Z,46.93
2019-03-10T14:18:15.440Z,46.41
2019-03-10T14:20:47.833Z,46.29
2019-03-10T14:23:20.290Z,46.98
2019-03-10T14:25:52.659Z,46.81
2019-03-10T14:28:25.110Z,46.41
2019-03-10T14:30:57.481Z,46.38
2019-03-10T14:33:29.927Z,46.84
2019-03-10T14:36:02.409Z,46.87
2019-03-10T14:38:35.301Z,47.97
2019-03-10T14:41:07.712Z,47.14
2019-03-10T14:43:40.158Z,46.96
2019-03-10T14:46:12.490Z,46.84
2019-03-10T14:48:45.009Z,46.03
2019-03-10T14:51:18.170Z,47.85
2019-03-10T14:53:52.350Z,47.84
2019-03-10T14:56:24.822Z,47.53
2019-03-10T14:58:57.559Z,46.25
2019-03-10T15:01:30.003Z,47.54
2019-03-10T15:04:02.942Z,48.12
2019-03-10T15:06:35.322Z,48.93
2019-03-10T15:09:09.140Z,47.77
2019-03-10T15:11:43.051Z,48.00
2019-03-10T15:14:15.500Z,47.25
2019-03-10T15:16:47.877Z,47.44
2019-03-10T15:19:20.380Z,46.72
2019-03-10T15:21:52.959Z,45.76
2019-03-10T15:24:25.810Z,44.94
2019-03-10T15:26:58.232Z,46.91
2019-03-10T15:29:30.664Z,47.06
2019-03-10T15:32:03.234Z,46.73
2019-03-10T15:34:35.671Z,48.50
2019-03-10T15:37:08.053Z,50.91
2019-03-10T15:39:40.551Z,52.45
2019-03-10T15:42:12.981Z,52.46
2019-03-10T15:44:45.510Z,53.57
2019-03-10T15:47:17.960Z,53.18
2019-03-10T15:49:52.140Z,54.06
2019-03-10T15:52:24.521Z,53.76
2019-03-10T15:54:57.101Z,55.24
2019-03-10T15:57:29.482Z,57.41
2019-03-10T16:00:01.940Z,57.46
2019-03-10T16:02:35.980Z,57.58
2019-03-10T16:05:08.956Z,61.23
2019-03-10T16:07:41.641Z,59.77
2019-03-10T16:10:14.250Z,60.23
2019-03-10T16:12:46.690Z,62.10
2019-03-10T16:15:19.492Z,63.24
2019-03-10T16:17:51.851Z,63.22
2019-03-10T16:20:25.361Z,63.68
2019-03-10T16:22:57.811Z,66.54
2019-03-10T16:25:30.312Z,66.45
2019-03-10T16:28:02.780Z,65.57
2019-03-10T16:30:35.130Z,67.90
2019-03-10T16:33:07.420Z,67.87
2019-03-10T16:35:41.411Z,67.16
2019-03-10T16:38:13.725Z,68.37
2019-03-10T16:40:45.089Z,68.58
2019-03-10T16:43:18.400Z,76.01
2019-03-10T16:45:54.693Z,69.77
2019-03-10T16:48:27.110Z,69.43
2019-03-10T16:51:00.113Z,70.21
2019-03-10T16:53:33.010Z,70.64
2019-03-10T16:56:06.210Z,71.34
2019-03-10T16:58:38.588Z,71.36
2019-03-10T17:01:11.151Z,72.22
2019-03-10T17:03:43.541Z,72.22
2019-03-10T17:06:16.475Z,73.21
2019-03-10T17:08:48.952Z,72.85
2019-03-10T17:11:21.481Z,73.47
2019-03-10T17:13:53.940Z,73.13
2019-03-10T17:16:28.020Z,73.31
2019-03-10T17:19:01.071Z,74.12
2019-03-10T17:21:34.020Z,73.73
2019-03-10T17:24:06.470Z,74.77
2019-03-10T17:26:39.129Z,74.52
2019-03-10T17:29:11.572Z,75.06
2019-03-10T17:31:44.070Z,74.89
2019-03-10T17:34:16.440Z,75.10
2019-03-10T17:36:50.371Z,74.93
2019-03-10T17:39:22.823Z,75.27
2019-03-10T17:41:55.530Z,75.09
2019-03-10T17:44:28.090Z,75.39
2019-03-10T17:47:04.091Z,75.27
2019-03-10T17:49:36.730Z,75.50
2019-03-10T17:52:14.395Z,75.64
2019-03-10T17:54:44.640Z,75.18
2019-03-10T17:57:16.970Z,75.41
2019-03-10T17:59:49.360Z,75.97
2019-03-10T18:02:22.008Z,75.99
2019-03-10T18:04:54.470Z,76.50
2019-03-10T18:07:26.930Z,76.48
2019-03-10T18:09:59.302Z,76.51
2019-03-10T18:12:31.830Z,76.37
2019-03-10T18:15:08.728Z,76.53
2019-03-10T18:17:38.837Z,77.09
2019-03-10T18:20:13.329Z,77.38
2019-03-10T18:22:45.921Z,76.45
2019-03-10T18:25:18.330Z,76.30
2019-03-10T18:27:50.740Z,77.58
2019-03-10T18:30:23.202Z,77.39
2019-03-10T18:32:56.249Z,77.35
2019-03-10T18:35:28.879Z,77.55
2019-03-10T18:38:01.586Z,77.32
2019-03-10T18:40:34.101Z,77.03
2019-03-10T18:43:08.910Z,77.24
2019-03-10T18:45:42.580Z,77.07
2019-03-10T18:48:15.591Z,76.76
2019-03-10T18:50:48.036Z,76.87
2019-03-10T18:53:20.410Z,76.42
2019-03-10T18:55:52.860Z,76.43
2019-03-10T18:58:25.340Z,76.38
2019-03-10T19:00:57.975Z,76.13
2019-03-10T19:03:30.470Z,76.39
2019-03-10T19:06:03.310Z,76.60
2019-03-10T19:08:36.714Z,76.77
2019-03-10T19:11:09.160Z,77.13
2019-03-10T19:13:41.602Z,77.34
2019-03-10T19:16:14.000Z,77.55
2019-03-10T19:18:47.510Z,77.51
2019-03-10T19:21:19.850Z,77.95
2019-03-10T19:23:52.310Z,77.60
2019-03-10T19:26:27.059Z,77.91
2019-03-10T19:28:59.981Z,78.09
2019-03-10T19:31:33.122Z,78.49
2019-03-10T19:34:05.799Z,78.56
2019-03-10T19:36:38.320Z,78.43
2019-03-10T19:39:10.720Z,78.36
2019-03-10T19:41:44.542Z,78.11
2019-03-10T19:44:16.993Z,78.38
2019-03-10T19:46:50.140Z,78.52
2019-03-10T19:49:23.813Z,78.21
2019-03-10T19:51:56.279Z,78.52
2019-03-10T19:54:28.604Z,78.66
2019-03-10T19:56:59.979Z,78.59
2019-03-10T19:59:32.678Z,81.37
2019-03-10T20:02:04.959Z,81.34
2019-03-10T20:04:37.403Z,78.38
2019-03-10T20:07:10.073Z,78.40
2019-03-10T20:09:42.591Z,78.64
2019-03-10T20:12:16.122Z,78.50
2019-03-10T20:14:49.121Z,79.55
2019-03-10T20:17:22.031Z,78.55
2019-03-10T20:19:55.140Z,79.48
2019-03-10T20:22:28.231Z,79.80
2019-03-10T20:25:00.761Z,79.16
2019-03-10T20:27:33.731Z,78.80
2019-03-10T20:30:06.810Z,79.02
2019-03-10T20:32:40.230Z,79.37
2019-03-10T20:35:12.915Z,79.72
2019-03-10T20:37:45.820Z,79.54
2019-03-10T20:40:18.571Z,79.43
2019-03-10T20:42:51.913Z,79.44
2019-03-10T20:45:24.936Z,79.73
2019-03-10T20:47:58.189Z,79.39
2019-03-10T20:50:32.129Z,79.04
2019-03-10T20:53:06.551Z,79.73
2019-03-10T20:55:39.373Z,79.41
2019-03-10T20:58:12.190Z,79.54
2019-03-10T21:00:44.660Z,80.16
2019-03-10T21:03:17.200Z,80.64
2019-03-10T21:05:49.871Z,80.80
2019-03-10T21:08:22.955Z,80.27
2019-03-10T21:10:55.368Z,79.68
2019-03-10T21:13:27.770Z,79.46
2019-03-10T21:16:00.248Z,79.21
2019-03-10T21:18:32.640Z,79.29
2019-03-10T21:21:05.071Z,79.80
2019-03-10T21:23:37.406Z,80.31
2019-03-10T21:26:09.965Z,80.25
2019-03-10T21:28:42.380Z,80.02
2019-03-10T21:31:25.750Z,80.51
2019-03-10T21:33:58.141Z,80.23
2019-03-10T21:36:31.152Z,79.75
2019-03-10T21:39:05.661Z,79.76
2019-03-10T21:41:38.991Z,80.19
2019-03-10T21:44:13.650Z,80.01
2019-03-10T21:46:46.848Z,79.76
2019-03-10T21:49:19.670Z,79.67
2019-03-10T21:51:52.020Z,80.28
2019-03-10T21:54:24.601Z,80.67
2019-03-10T21:56:56.950Z,80.73
2019-03-10T21:59:29.561Z,81.31
2019-03-10T22:02:02.033Z,81.53
2019-03-10T22:04:34.581Z,81.38
2019-03-10T22:07:07.059Z,81.39
2019-03-10T22:09:39.470Z,81.02
2019-03-10T22:12:13.692Z,81.28
2019-03-10T22:14:46.090Z,80.95
2019-03-10T22:17:18.482Z,81.49
2019-03-10T22:19:50.875Z,81.24
2019-03-10T22:22:23.560Z,81.34
2019-03-10T22:24:55.971Z,81.40
2019-03-10T22:27:28.310Z,81.55
2019-03-10T22:30:01.238Z,82.88
2019-03-10T22:32:33.720Z,82.38
2019-03-10T22:35:06.740Z,82.61
2019-03-10T22:37:39.130Z,82.05
2019-03-10T22:40:11.954Z,81.88
2019-03-10T22:42:44.352Z,82.37
2019-03-10T22:45:16.957Z,82.55
2019-03-10T22:47:50.820Z,84.17
2019-03-10T22:50:23.450Z,84.87
2019-03-10T22:52:55.780Z,84.45
2019-03-10T22:55:28.093Z,85.35
2019-03-10T22:58:00.480Z,84.84
2019-03-10T23:00:51.852Z,85.71
2019-03-10T23:03:24.690Z,84.65
2019-03-10T23:05:58.380Z,84.00
2019-03-10T23:08:31.060Z,83.64
2019-03-10T23:11:03.540Z,83.44
2019-03-10T23:13:37.062Z,82.10
2019-03-10T23:16:09.571Z,83.56
2019-03-10T23:18:41.922Z,83.74
2019-03-10T23:21:14.572Z,83.54
2019-03-10T23:23:47.679Z,82.82
2019-03-10T23:26:19.990Z,83.20
2019-03-10T23:28:51.989Z,82.59
2019-03-10T23:31:24.252Z,83.45
2019-03-10T23:33:56.945Z,82.20
2019-03-10T23:36:29.290Z,81.21
2019-03-10T23:39:01.620Z,81.07
2019-03-10T23:41:36.601Z,79.21
2019-03-10T23:44:08.840Z,79.96
2019-03-10T23:46:40.268Z,78.63
2019-03-10T23:49:12.836Z,79.64
2019-03-10T23:51:45.382Z,78.48
2019-03-10T23:54:17.791Z,78.21
2019-03-10T23:56:52.363Z,78.07
2019-03-10T23:59:24.870Z,76.87
